Cleveland, TN (37311)

3:37 AM EST on March 04, 2015 (GMT -0500)
Cleveland | Change Station
CLOSE
Current Station
Personal Weather Station
Location: Cleveland, TN
Elevation: 896 ft
Nearby Weather Stations

Elev 896 ft 35.19 °N, 84.86 °W | Updated 11 minutes ago

Overcast
Overcast
53.6 °F
Feels Like 53.6 °F
N
3.2
Wind Variable Wind from SW

Today
High -- | Low -- °F
--% Chance of Precip.
Yesterday
High -- | Low -- °F
Precip. -- in
7:05 AM 6:37 PM
Waxing Gibbous, 98% visible
Pressure 29.97 in
Visibility 4.0 miles
Clouds Overcast 400 ft
Dew Point 53 °F
Humidity 99%
Rainfall 0.00 in
Snow Depth Not available.
UV 0 out of 12
Pollen .70 out of 12
Air Quality Not available.
Flu Activity Not available.
METAR KCHA 040753Z AUTO 17008KT 4SM BR OVC004 14/13 A2997 RMK AO2 RAE23 SLP148 P0000 T01390128

More Conditions Fewer Conditions

Pressure 29.97 in
Visibility 4.0 miles
Clouds Overcast 400 ft
Dew Point 53 °F
Humidity 99%
Rainfall 0.00 in
Snow Depth Not available.
UV 0 out of 12
Pollen .70 out of 12
Air Quality Not available.
Flu Activity Not available.
METAR KCHA 040753Z AUTO 17008KT 4SM BR OVC004 14/13 A2997 RMK AO2 RAE23 SLP148 P0000 T01390128

More Conditions Fewer Conditions

10-Day Weather Forecast

Almanac

Astronomy

Mar. 04, 2015 Rise Set
Actual Time
Civil Twilight
Nautical Twilight
Astronomical Twilight
Moon
Length of Visible Light
Length of Day
Tomorrow will be .
, % of the Moon is Illuminated

Today's Extremes

State Highs State Lows

Community

WunderPhotos

Upload Photos

1,802,416 photos uploaded!

WunderBlogs® & News

Nearby

Air Quality

  Air Quality AQ Index Pollutant
Not available.

Snow Depth

Station Depth Elevation

Earthquake Activity

City Distance Mag. Time & Date
Minimum magnitude displayed is 2.5.

Coastal Water Temperatures

Place Temperature

Nearby Weather Stations